sensor_id;sensor_type;location;lat;lon;timestamp;P1;durP1;ratioP1;P2;durP2;ratioP2
39772;SDS011;25451;51.960;6.250;2023-07-22T00:00:08;11.20;;;5.97;;
39772;SDS011;25451;51.960;6.250;2023-07-22T00:02:38;12.27;;;5.65;;
39772;SDS011;25451;51.960;6.250;2023-07-22T00:05:04;11.07;;;5.47;;
39772;SDS011;25451;51.960;6.250;2023-07-22T00:07:29;12.05;;;5.45;;
39772;SDS011;25451;51.960;6.250;2023-07-22T00:09:54;10.63;;;5.33;;
39772;SDS011;25451;51.960;6.250;2023-07-22T00:12:20;12.77;;;6.57;;
39772;SDS011;25451;51.960;6.250;2023-07-22T00:14:49;13.30;;;6.70;;
39772;SDS011;25451;51.960;6.250;2023-07-22T00:17:15;15.70;;;7.97;;
39772;SDS011;25451;51.960;6.250;2023-07-22T00:19:40;19.00;;;8.98;;
39772;SDS011;25451;51.960;6.250;2023-07-22T00:22:06;16.17;;;7.55;;
39772;SDS011;25451;51.960;6.250;2023-07-22T00:24:31;16.00;;;9.17;;
39772;SDS011;25451;51.960;6.250;2023-07-22T00:26:57;17.97;;;8.43;;
39772;SDS011;25451;51.960;6.250;2023-07-22T00:29:22;16.83;;;7.97;;
39772;SDS011;25451;51.960;6.250;2023-07-22T00:31:47;16.63;;;7.50;;
39772;SDS011;25451;51.960;6.250;2023-07-22T00:34:14;13.88;;;6.38;;
39772;SDS011;25451;51.960;6.250;2023-07-22T00:36:39;12.02;;;6.57;;
39772;SDS011;25451;51.960;6.250;2023-07-22T00:39:05;11.98;;;5.85;;
39772;SDS011;25451;51.960;6.250;2023-07-22T00:41:30;12.83;;;5.63;;
39772;SDS011;25451;51.960;6.250;2023-07-22T00:43:56;10.47;;;5.03;;
39772;SDS011;25451;51.960;6.250;2023-07-22T00:46:21;11.38;;;5.50;;
39772;SDS011;25451;51.960;6.250;2023-07-22T00:48:47;9.10;;;4.70;;
39772;SDS011;25451;51.960;6.250;2023-07-22T00:51:13;11.18;;;5.38;;
39772;SDS011;25451;51.960;6.250;2023-07-22T00:53:39;9.40;;;4.83;;
39772;SDS011;25451;51.960;6.250;2023-07-22T00:56:04;10.18;;;5.07;;
39772;SDS011;25451;51.960;6.250;2023-07-22T00:58:30;12.75;;;6.18;;
39772;SDS011;25451;51.960;6.250;2023-07-22T01:00:56;16.87;;;7.83;;
39772;SDS011;25451;51.960;6.250;2023-07-22T01:03:21;14.33;;;7.23;;
39772;SDS011;25451;51.960;6.250;2023-07-22T01:05:47;14.67;;;7.60;;
39772;SDS011;25451;51.960;6.250;2023-07-22T01:08:13;14.73;;;7.65;;
39772;SDS011;25451;51.960;6.250;2023-07-22T01:10:39;15.32;;;7.32;;
39772;SDS011;25451;51.960;6.250;2023-07-22T01:13:04;13.80;;;6.83;;
39772;SDS011;25451;51.960;6.250;2023-07-22T01:15:30;13.37;;;6.40;;
39772;SDS011;25451;51.960;6.250;2023-07-22T01:17:56;13.73;;;7.00;;
39772;SDS011;25451;51.960;6.250;2023-07-22T01:20:26;15.73;;;7.40;;
39772;SDS011;25451;51.960;6.250;2023-07-22T01:22:53;12.05;;;6.45;;
39772;SDS011;25451;51.960;6.250;2023-07-22T01:25:20;14.07;;;6.53;;
39772;SDS011;25451;51.960;6.250;2023-07-22T01:27:50;11.80;;;6.10;;
39772;SDS011;25451;51.960;6.250;2023-07-22T01:30:16;11.40;;;6.30;;
39772;SDS011;25451;51.960;6.250;2023-07-22T01:32:41;10.17;;;5.80;;
39772;SDS011;25451;51.960;6.250;2023-07-22T01:35:07;11.00;;;4.88;;
39772;SDS011;25451;51.960;6.250;2023-07-22T01:37:33;9.95;;;5.40;;
39772;SDS011;25451;51.960;6.250;2023-07-22T01:39:59;13.43;;;6.30;;
39772;SDS011;25451;51.960;6.250;2023-07-22T01:42:25;11.85;;;5.90;;
39772;SDS011;25451;51.960;6.250;2023-07-22T01:44:50;11.77;;;6.13;;
39772;SDS011;25451;51.960;6.250;2023-07-22T01:47:16;12.18;;;5.97;;
39772;SDS011;25451;51.960;6.250;2023-07-22T01:49:41;13.38;;;5.93;;
39772;SDS011;25451;51.960;6.250;2023-07-22T01:52:08;13.40;;;6.27;;
39772;SDS011;25451;51.960;6.250;2023-07-22T01:54:33;12.43;;;6.10;;
39772;SDS011;25451;51.960;6.250;2023-07-22T01:56:58;12.35;;;5.50;;
39772;SDS011;25451;51.960;6.250;2023-07-22T01:59:24;11.73;;;5.63;;
39772;SDS011;25451;51.960;6.250;2023-07-22T02:01:50;10.38;;;5.35;;
39772;SDS011;25451;51.960;6.250;2023-07-22T02:04:15;10.70;;;4.85;;
39772;SDS011;25451;51.960;6.250;2023-07-22T02:06:41;11.07;;;4.90;;
39772;SDS011;25451;51.960;6.250;2023-07-22T02:09:06;10.37;;;4.60;;
39772;SDS011;25451;51.960;6.250;2023-07-22T02:11:34;10.27;;;4.90;;
39772;SDS011;25451;51.960;6.250;2023-07-22T02:14:00;10.35;;;4.65;;
39772;SDS011;25451;51.960;6.250;2023-07-22T02:16:25;10.67;;;4.40;;
39772;SDS011;25451;51.960;6.250;2023-07-22T02:18:51;11.07;;;5.23;;
39772;SDS011;25451;51.960;6.250;2023-07-22T02:21:16;9.60;;;4.67;;
39772;SDS011;25451;51.960;6.250;2023-07-22T02:23:41;10.10;;;4.40;;
39772;SDS011;25451;51.960;6.250;2023-07-22T02:26:07;12.83;;;5.07;;
39772;SDS011;25451;51.960;6.250;2023-07-22T02:28:33;11.37;;;5.27;;
39772;SDS011;25451;51.960;6.250;2023-07-22T02:31:00;10.63;;;5.20;;
39772;SDS011;25451;51.960;6.250;2023-07-22T02:33:31;11.63;;;5.32;;
39772;SDS011;25451;51.960;6.250;2023-07-22T02:35:57;11.73;;;5.43;;
39772;SDS011;25451;51.960;6.250;2023-07-22T02:38:22;11.10;;;5.20;;
39772;SDS011;25451;51.960;6.250;2023-07-22T02:40:48;10.83;;;4.83;;
39772;SDS011;25451;51.960;6.250;2023-07-22T02:43:13;11.07;;;5.40;;
39772;SDS011;25451;51.960;6.250;2023-07-22T02:45:39;9.82;;;4.80;;
39772;SDS011;25451;51.960;6.250;2023-07-22T02:48:04;10.20;;;4.43;;
39772;SDS011;25451;51.960;6.250;2023-07-22T02:50:30;11.93;;;5.93;;
39772;SDS011;25451;51.960;6.250;2023-07-22T02:52:55;11.38;;;4.95;;
39772;SDS011;25451;51.960;6.250;2023-07-22T02:55:21;9.93;;;4.70;;
39772;SDS011;25451;51.960;6.250;2023-07-22T02:57:48;12.20;;;5.00;;
39772;SDS011;25451;51.960;6.250;2023-07-22T03:00:14;10.40;;;4.85;;
39772;SDS011;25451;51.960;6.250;2023-07-22T03:02:51;9.48;;;4.70;;
39772;SDS011;25451;51.960;6.250;2023-07-22T03:05:18;10.60;;;5.28;;
39772;SDS011;25451;51.960;6.250;2023-07-22T03:07:44;9.23;;;4.72;;
39772;SDS011;25451;51.960;6.250;2023-07-22T03:10:09;10.63;;;4.70;;
39772;SDS011;25451;51.960;6.250;2023-07-22T03:12:35;11.77;;;5.73;;
39772;SDS011;25451;51.960;6.250;2023-07-22T03:15:01;10.63;;;5.22;;
39772;SDS011;25451;51.960;6.250;2023-07-22T03:17:28;10.63;;;4.47;;
39772;SDS011;25451;51.960;6.250;2023-07-22T03:19:54;11.05;;;4.72;;
39772;SDS011;25451;51.960;6.250;2023-07-22T03:22:20;12.13;;;5.32;;
39772;SDS011;25451;51.960;6.250;2023-07-22T03:24:45;10.75;;;4.90;;
39772;SDS011;25451;51.960;6.250;2023-07-22T03:27:11;10.73;;;5.23;;
39772;SDS011;25451;51.960;6.250;2023-07-22T03:29:37;14.05;;;5.97;;
39772;SDS011;25451;51.960;6.250;2023-07-22T03:32:03;12.82;;;5.43;;
39772;SDS011;25451;51.960;6.250;2023-07-22T03:34:29;11.70;;;5.50;;
39772;SDS011;25451;51.960;6.250;2023-07-22T03:36:55;10.77;;;5.25;;
39772;SDS011;25451;51.960;6.250;2023-07-22T03:39:21;10.00;;;5.00;;
39772;SDS011;25451;51.960;6.250;2023-07-22T03:41:47;12.25;;;5.07;;
39772;SDS011;25451;51.960;6.250;2023-07-22T03:44:12;13.33;;;5.17;;
39772;SDS011;25451;51.960;6.250;2023-07-22T03:46:38;10.87;;;5.77;;
39772;SDS011;25451;51.960;6.250;2023-07-22T03:49:03;12.70;;;5.75;;
39772;SDS011;25451;51.960;6.250;2023-07-22T03:51:29;11.67;;;5.40;;
39772;SDS011;25451;51.960;6.250;2023-07-22T03:53:54;13.17;;;5.80;;
39772;SDS011;25451;51.960;6.250;2023-07-22T03:56:20;10.70;;;5.23;;
39772;SDS011;25451;51.960;6.250;2023-07-22T03:58:45;10.98;;;5.40;;
39772;SDS011;25451;51.960;6.250;2023-07-22T04:01:11;11.03;;;5.20;;
39772;SDS011;25451;51.960;6.250;2023-07-22T04:03:37;12.57;;;5.93;;
39772;SDS011;25451;51.960;6.250;2023-07-22T04:06:03;13.87;;;6.40;;
39772;SDS011;25451;51.960;6.250;2023-07-22T04:08:28;12.43;;;5.60;;
39772;SDS011;25451;51.960;6.250;2023-07-22T04:10:54;11.23;;;5.17;;
39772;SDS011;25451;51.960;6.250;2023-07-22T04:13:20;13.18;;;5.72;;
39772;SDS011;25451;51.960;6.250;2023-07-22T04:15:46;11.63;;;5.43;;
39772;SDS011;25451;51.960;6.250;2023-07-22T04:18:12;12.80;;;5.47;;
39772;SDS011;25451;51.960;6.250;2023-07-22T04:20:39;15.50;;;6.45;;
39772;SDS011;25451;51.960;6.250;2023-07-22T04:23:05;12.05;;;5.28;;
39772;SDS011;25451;51.960;6.250;2023-07-22T04:25:30;13.77;;;5.93;;
39772;SDS011;25451;51.960;6.250;2023-07-22T04:27:55;13.30;;;5.37;;
39772;SDS011;25451;51.960;6.250;2023-07-22T04:30:21;13.23;;;5.60;;
39772;SDS011;25451;51.960;6.250;2023-07-22T04:32:49;10.87;;;5.33;;
39772;SDS011;25451;51.960;6.250;2023-07-22T04:35:18;13.23;;;5.95;;
39772;SDS011;25451;51.960;6.250;2023-07-22T04:37:44;14.85;;;6.32;;
39772;SDS011;25451;51.960;6.250;2023-07-22T04:40:13;13.32;;;5.97;;
39772;SDS011;25451;51.960;6.250;2023-07-22T04:42:42;12.35;;;5.65;;
39772;SDS011;25451;51.960;6.250;2023-07-22T04:45:08;15.43;;;6.38;;
39772;SDS011;25451;51.960;6.250;2023-07-22T04:47:35;12.17;;;5.70;;
39772;SDS011;25451;51.960;6.250;2023-07-22T04:50:01;13.55;;;6.40;;
39772;SDS011;25451;51.960;6.250;2023-07-22T04:52:26;12.43;;;5.95;;
39772;SDS011;25451;51.960;6.250;2023-07-22T04:54:51;14.30;;;6.05;;
39772;SDS011;25451;51.960;6.250;2023-07-22T04:57:18;15.47;;;6.60;;
39772;SDS011;25451;51.960;6.250;2023-07-22T04:59:44;15.93;;;6.78;;
39772;SDS011;25451;51.960;6.250;2023-07-22T05:02:09;13.77;;;6.60;;
39772;SDS011;25451;51.960;6.250;2023-07-22T05:04:34;15.43;;;6.80;;
39772;SDS011;25451;51.960;6.250;2023-07-22T05:07:00;18.97;;;7.07;;
39772;SDS011;25451;51.960;6.250;2023-07-22T05:09:25;16.10;;;6.95;;
39772;SDS011;25451;51.960;6.250;2023-07-22T05:11:50;16.65;;;6.60;;
39772;SDS011;25451;51.960;6.250;2023-07-22T05:14:16;15.30;;;7.00;;
39772;SDS011;25451;51.960;6.250;2023-07-22T05:16:41;14.90;;;7.30;;
39772;SDS011;25451;51.960;6.250;2023-07-22T05:19:06;14.87;;;6.93;;
39772;SDS011;25451;51.960;6.250;2023-07-22T05:21:33;15.82;;;7.25;;
39772;SDS011;25451;51.960;6.250;2023-07-22T05:23:58;16.47;;;7.90;;
39772;SDS011;25451;51.960;6.250;2023-07-22T05:26:24;16.73;;;7.83;;
39772;SDS011;25451;51.960;6.250;2023-07-22T05:28:49;15.00;;;7.07;;
39772;SDS011;25451;51.960;6.250;2023-07-22T05:31:15;16.50;;;7.40;;
39772;SDS011;25451;51.960;6.250;2023-07-22T05:33:41;17.13;;;7.28;;
39772;SDS011;25451;51.960;6.250;2023-07-22T05:36:06;16.50;;;7.20;;
39772;SDS011;25451;51.960;6.250;2023-07-22T05:38:32;15.60;;;6.82;;
39772;SDS011;25451;51.960;6.250;2023-07-22T05:40:57;17.20;;;7.13;;
39772;SDS011;25451;51.960;6.250;2023-07-22T05:43:22;14.73;;;7.40;;
39772;SDS011;25451;51.960;6.250;2023-07-22T05:45:48;14.27;;;7.00;;
39772;SDS011;25451;51.960;6.250;2023-07-22T05:48:14;15.77;;;7.00;;
39772;SDS011;25451;51.960;6.250;2023-07-22T05:50:39;15.77;;;7.20;;
39772;SDS011;25451;51.960;6.250;2023-07-22T05:53:04;18.80;;;7.03;;
39772;SDS011;25451;51.960;6.250;2023-07-22T05:55:29;15.60;;;7.13;;
39772;SDS011;25451;51.960;6.250;2023-07-22T05:57:55;14.80;;;6.93;;
39772;SDS011;25451;51.960;6.250;2023-07-22T06:00:20;14.47;;;6.70;;
39772;SDS011;25451;51.960;6.250;2023-07-22T06:02:46;13.23;;;6.53;;
39772;SDS011;25451;51.960;6.250;2023-07-22T06:05:12;13.55;;;6.57;;
39772;SDS011;25451;51.960;6.250;2023-07-22T06:07:38;18.02;;;6.78;;
39772;SDS011;25451;51.960;6.250;2023-07-22T06:10:03;15.73;;;7.20;;
39772;SDS011;25451;51.960;6.250;2023-07-22T06:12:29;15.95;;;7.57;;
39772;SDS011;25451;51.960;6.250;2023-07-22T06:14:55;17.50;;;7.43;;
39772;SDS011;25451;51.960;6.250;2023-07-22T06:17:20;15.13;;;7.53;;
39772;SDS011;25451;51.960;6.250;2023-07-22T06:19:46;16.60;;;7.20;;
39772;SDS011;25451;51.960;6.250;2023-07-22T06:22:11;16.17;;;7.30;;
39772;SDS011;25451;51.960;6.250;2023-07-22T06:24:36;14.60;;;6.93;;
39772;SDS011;25451;51.960;6.250;2023-07-22T06:27:02;15.87;;;7.33;;
39772;SDS011;25451;51.960;6.250;2023-07-22T06:29:27;15.43;;;7.40;;
39772;SDS011;25451;51.960;6.250;2023-07-22T06:31:52;17.67;;;7.73;;
39772;SDS011;25451;51.960;6.250;2023-07-22T06:34:18;19.25;;;7.40;;
39772;SDS011;25451;51.960;6.250;2023-07-22T06:36:43;13.73;;;6.60;;
39772;SDS011;25451;51.960;6.250;2023-07-22T06:39:08;17.53;;;7.53;;
39772;SDS011;25451;51.960;6.250;2023-07-22T06:41:34;15.47;;;7.73;;
39772;SDS011;25451;51.960;6.250;2023-07-22T06:43:59;15.47;;;7.03;;
39772;SDS011;25451;51.960;6.250;2023-07-22T06:46:25;19.20;;;7.20;;
39772;SDS011;25451;51.960;6.250;2023-07-22T06:48:50;17.90;;;7.32;;
39772;SDS011;25451;51.960;6.250;2023-07-22T06:51:15;17.87;;;7.47;;
39772;SDS011;25451;51.960;6.250;2023-07-22T06:53:41;16.93;;;7.77;;
39772;SDS011;25451;51.960;6.250;2023-07-22T06:56:06;18.87;;;7.27;;
39772;SDS011;25451;51.960;6.250;2023-07-22T06:58:31;19.27;;;7.33;;
39772;SDS011;25451;51.960;6.250;2023-07-22T07:00:56;18.73;;;7.43;;
39772;SDS011;25451;51.960;6.250;2023-07-22T07:03:22;16.17;;;6.97;;
39772;SDS011;25451;51.960;6.250;2023-07-22T07:05:51;14.95;;;7.32;;
39772;SDS011;25451;51.960;6.250;2023-07-22T07:08:21;16.30;;;7.13;;
39772;SDS011;25451;51.960;6.250;2023-07-22T07:10:47;18.90;;;7.77;;
39772;SDS011;25451;51.960;6.250;2023-07-22T07:13:13;16.67;;;7.22;;
39772;SDS011;25451;51.960;6.250;2023-07-22T07:15:39;19.00;;;7.60;;
39772;SDS011;25451;51.960;6.250;2023-07-22T07:18:04;17.02;;;6.90;;
39772;SDS011;25451;51.960;6.250;2023-07-22T07:20:30;18.00;;;7.80;;
39772;SDS011;25451;51.960;6.250;2023-07-22T07:22:55;17.13;;;7.10;;
39772;SDS011;25451;51.960;6.250;2023-07-22T07:25:21;17.43;;;7.37;;
39772;SDS011;25451;51.960;6.250;2023-07-22T07:27:46;15.95;;;6.88;;
39772;SDS011;25451;51.960;6.250;2023-07-22T07:30:12;15.60;;;7.30;;
39772;SDS011;25451;51.960;6.250;2023-07-22T07:32:37;16.53;;;7.17;;
39772;SDS011;25451;51.960;6.250;2023-07-22T07:35:02;17.05;;;7.35;;
39772;SDS011;25451;51.960;6.250;2023-07-22T07:37:29;18.88;;;7.57;;
39772;SDS011;25451;51.960;6.250;2023-07-22T07:39:54;18.85;;;7.82;;
39772;SDS011;25451;51.960;6.250;2023-07-22T07:42:24;17.43;;;7.83;;
39772;SDS011;25451;51.960;6.250;2023-07-22T07:44:49;18.80;;;8.00;;
39772;SDS011;25451;51.960;6.250;2023-07-22T07:47:15;18.07;;;7.70;;
39772;SDS011;25451;51.960;6.250;2023-07-22T07:49:40;16.30;;;7.47;;
39772;SDS011;25451;51.960;6.250;2023-07-22T07:52:05;15.73;;;6.97;;
39772;SDS011;25451;51.960;6.250;2023-07-22T07:54:31;18.17;;;7.80;;
39772;SDS011;25451;51.960;6.250;2023-07-22T07:56:56;18.27;;;7.37;;
39772;SDS011;25451;51.960;6.250;2023-07-22T07:59:21;15.43;;;7.43;;
39772;SDS011;25451;51.960;6.250;2023-07-22T08:01:47;16.20;;;7.40;;
39772;SDS011;25451;51.960;6.250;2023-07-22T08:04:12;14.23;;;6.77;;
39772;SDS011;25451;51.960;6.250;2023-07-22T08:06:38;12.67;;;6.50;;
39772;SDS011;25451;51.960;6.250;2023-07-22T08:09:03;14.33;;;6.60;;
39772;SDS011;25451;51.960;6.250;2023-07-22T08:11:30;12.75;;;6.07;;
39772;SDS011;25451;51.960;6.250;2023-07-22T08:13:56;12.50;;;5.88;;
39772;SDS011;25451;51.960;6.250;2023-07-22T08:16:21;12.47;;;5.73;;
39772;SDS011;25451;51.960;6.250;2023-07-22T08:18:47;14.10;;;6.03;;
39772;SDS011;25451;51.960;6.250;2023-07-22T08:21:13;13.07;;;5.65;;
39772;SDS011;25451;51.960;6.250;2023-07-22T08:23:38;12.27;;;5.43;;
39772;SDS011;25451;51.960;6.250;2023-07-22T08:26:04;12.47;;;5.43;;
39772;SDS011;25451;51.960;6.250;2023-07-22T08:28:33;12.15;;;5.03;;
39772;SDS011;25451;51.960;6.250;2023-07-22T08:30:58;10.53;;;4.87;;
39772;SDS011;25451;51.960;6.250;2023-07-22T08:33:25;12.83;;;4.40;;
39772;SDS011;25451;51.960;6.250;2023-07-22T08:35:51;8.73;;;4.93;;
39772;SDS011;25451;51.960;6.250;2023-07-22T08:38:17;9.13;;;4.78;;
39772;SDS011;25451;51.960;6.250;2023-07-22T08:40:42;11.23;;;4.67;;
39772;SDS011;25451;51.960;6.250;2023-07-22T08:43:08;10.80;;;4.63;;
39772;SDS011;25451;51.960;6.250;2023-07-22T08:45:36;8.95;;;4.85;;
39772;SDS011;25451;51.960;6.250;2023-07-22T08:48:03;9.68;;;4.90;;
39772;SDS011;25451;51.960;6.250;2023-07-22T08:50:34;11.80;;;5.03;;
39772;SDS011;25451;51.960;6.250;2023-07-22T08:53:06;10.73;;;5.10;;
39772;SDS011;25451;51.960;6.250;2023-07-22T08:55:32;12.90;;;5.10;;
39772;SDS011;25451;51.960;6.250;2023-07-22T08:57:59;9.00;;;4.80;;
39772;SDS011;25451;51.960;6.250;2023-07-22T09:00:25;11.57;;;5.10;;
39772;SDS011;25451;51.960;6.250;2023-07-22T09:02:51;9.88;;;4.80;;
39772;SDS011;25451;51.960;6.250;2023-07-22T09:05:18;12.65;;;5.43;;
39772;SDS011;25451;51.960;6.250;2023-07-22T09:07:43;11.97;;;5.33;;
39772;SDS011;25451;51.960;6.250;2023-07-22T09:10:10;12.63;;;5.63;;
39772;SDS011;25451;51.960;6.250;2023-07-22T09:12:36;12.33;;;4.80;;
39772;SDS011;25451;51.960;6.250;2023-07-22T09:15:07;11.35;;;5.32;;
39772;SDS011;25451;51.960;6.250;2023-07-22T09:17:35;12.30;;;5.25;;
39772;SDS011;25451;51.960;6.250;2023-07-22T09:20:01;10.50;;;5.60;;
39772;SDS011;25451;51.960;6.250;2023-07-22T09:22:28;11.55;;;5.50;;
39772;SDS011;25451;51.960;6.250;2023-07-22T09:24:55;10.67;;;5.30;;
39772;SDS011;25451;51.960;6.250;2023-07-22T09:27:38;11.02;;;5.22;;
39772;SDS011;25451;51.960;6.250;2023-07-22T09:30:04;10.67;;;5.00;;
39772;SDS011;25451;51.960;6.250;2023-07-22T09:32:45;11.23;;;5.30;;
39772;SDS011;25451;51.960;6.250;2023-07-22T09:35:11;11.73;;;5.10;;
39772;SDS011;25451;51.960;6.250;2023-07-22T09:37:36;12.07;;;5.27;;
39772;SDS011;25451;51.960;6.250;2023-07-22T09:40:08;10.00;;;4.72;;
39772;SDS011;25451;51.960;6.250;2023-07-22T09:42:38;10.93;;;5.00;;
39772;SDS011;25451;51.960;6.250;2023-07-22T09:45:04;9.33;;;5.27;;
39772;SDS011;25451;51.960;6.250;2023-07-22T09:47:38;11.90;;;5.03;;
39772;SDS011;25451;51.960;6.250;2023-07-22T09:50:05;11.38;;;5.20;;
39772;SDS011;25451;51.960;6.250;2023-07-22T09:52:31;12.50;;;5.23;;
39772;SDS011;25451;51.960;6.250;2023-07-22T09:54:58;10.57;;;5.20;;
39772;SDS011;25451;51.960;6.250;2023-07-22T09:57:24;12.05;;;5.40;;
39772;SDS011;25451;51.960;6.250;2023-07-22T09:59:50;13.38;;;5.32;;
39772;SDS011;25451;51.960;6.250;2023-07-22T10:02:18;10.02;;;4.80;;
39772;SDS011;25451;51.960;6.250;2023-07-22T10:04:45;9.02;;;4.80;;
39772;SDS011;25451;51.960;6.250;2023-07-22T10:07:11;11.60;;;4.33;;
39772;SDS011;25451;51.960;6.250;2023-07-22T10:09:38;11.13;;;4.65;;
39772;SDS011;25451;51.960;6.250;2023-07-22T10:12:05;12.15;;;4.88;;
39772;SDS011;25451;51.960;6.250;2023-07-22T10:14:31;11.98;;;4.18;;
39772;SDS011;25451;51.960;6.250;2023-07-22T10:16:57;10.03;;;4.03;;
39772;SDS011;25451;51.960;6.250;2023-07-22T10:19:24;7.57;;;3.92;;
39772;SDS011;25451;51.960;6.250;2023-07-22T10:21:50;7.60;;;3.88;;
39772;SDS011;25451;51.960;6.250;2023-07-22T10:24:17;9.00;;;3.53;;
39772;SDS011;25451;51.960;6.250;2023-07-22T10:26:43;9.30;;;3.90;;
39772;SDS011;25451;51.960;6.250;2023-07-22T10:29:10;8.05;;;3.47;;
39772;SDS011;25451;51.960;6.250;2023-07-22T10:31:36;8.75;;;3.55;;
39772;SDS011;25451;51.960;6.250;2023-07-22T10:34:03;6.03;;;3.35;;
39772;SDS011;25451;51.960;6.250;2023-07-22T10:36:29;7.83;;;3.73;;
39772;SDS011;25451;51.960;6.250;2023-07-22T10:38:56;6.57;;;3.20;;
39772;SDS011;25451;51.960;6.250;2023-07-22T10:41:23;8.93;;;3.00;;
39772;SDS011;25451;51.960;6.250;2023-07-22T10:43:55;8.30;;;3.30;;
39772;SDS011;25451;51.960;6.250;2023-07-22T10:46:38;10.07;;;3.85;;
39772;SDS011;25451;51.960;6.250;2023-07-22T10:49:09;7.37;;;2.97;;
39772;SDS011;25451;51.960;6.250;2023-07-22T10:51:36;7.85;;;2.90;;
39772;SDS011;25451;51.960;6.250;2023-07-22T10:54:02;8.02;;;2.97;;
39772;SDS011;25451;51.960;6.250;2023-07-22T10:56:28;7.33;;;3.10;;
39772;SDS011;25451;51.960;6.250;2023-07-22T11:11:55;5.72;;;2.38;;
39772;SDS011;25451;51.960;6.250;2023-07-22T11:14:34;4.72;;;2.20;;
39772;SDS011;25451;51.960;6.250;2023-07-22T11:17:03;6.00;;;2.83;;
39772;SDS011;25451;51.960;6.250;2023-07-22T11:19:30;9.03;;;2.50;;
39772;SDS011;25451;51.960;6.250;2023-07-22T11:21:56;7.10;;;2.33;;
39772;SDS011;25451;51.960;6.250;2023-07-22T11:24:22;5.10;;;2.70;;
39772;SDS011;25451;51.960;6.250;2023-07-22T11:26:48;8.68;;;2.75;;
39772;SDS011;25451;51.960;6.250;2023-07-22T11:29:14;5.57;;;2.70;;
39772;SDS011;25451;51.960;6.250;2023-07-22T11:31:42;5.72;;;2.70;;
39772;SDS011;25451;51.960;6.250;2023-07-22T11:34:10;5.82;;;2.88;;
39772;SDS011;25451;51.960;6.250;2023-07-22T11:36:36;5.95;;;2.60;;
39772;SDS011;25451;51.960;6.250;2023-07-22T11:39:05;6.50;;;2.50;;
39772;SDS011;25451;51.960;6.250;2023-07-22T11:41:32;5.18;;;2.35;;
39772;SDS011;25451;51.960;6.250;2023-07-22T11:44:01;6.27;;;2.30;;
39772;SDS011;25451;51.960;6.250;2023-07-22T11:46:27;9.05;;;2.70;;
39772;SDS011;25451;51.960;6.250;2023-07-22T11:48:54;8.30;;;2.60;;
39772;SDS011;25451;51.960;6.250;2023-07-22T11:51:21;6.80;;;2.40;;
39772;SDS011;25451;51.960;6.250;2023-07-22T11:53:48;5.60;;;2.50;;
39772;SDS011;25451;51.960;6.250;2023-07-22T11:56:27;5.25;;;2.13;;
39772;SDS011;25451;51.960;6.250;2023-07-22T11:58:56;5.65;;;2.28;;
39772;SDS011;25451;51.960;6.250;2023-07-22T12:01:22;5.40;;;2.67;;
39772;SDS011;25451;51.960;6.250;2023-07-22T12:03:48;5.63;;;2.67;;
39772;SDS011;25451;51.960;6.250;2023-07-22T12:06:15;5.83;;;2.30;;
39772;SDS011;25451;51.960;6.250;2023-07-22T12:08:47;8.02;;;2.40;;
39772;SDS011;25451;51.960;6.250;2023-07-22T12:11:21;5.28;;;2.40;;
39772;SDS011;25451;51.960;6.250;2023-07-22T12:14:04;7.25;;;2.20;;
39772;SDS011;25451;51.960;6.250;2023-07-22T12:16:29;5.53;;;2.35;;
39772;SDS011;25451;51.960;6.250;2023-07-22T12:18:55;4.83;;;2.30;;
39772;SDS011;25451;51.960;6.250;2023-07-22T12:21:21;5.20;;;2.20;;
39772;SDS011;25451;51.960;6.250;2023-07-22T12:23:46;5.03;;;2.20;;
39772;SDS011;25451;51.960;6.250;2023-07-22T12:26:12;8.90;;;2.20;;
39772;SDS011;25451;51.960;6.250;2023-07-22T12:28:37;3.97;;;2.10;;
39772;SDS011;25451;51.960;6.250;2023-07-22T12:31:02;6.73;;;2.13;;
39772;SDS011;25451;51.960;6.250;2023-07-22T12:33:28;4.60;;;2.00;;
39772;SDS011;25451;51.960;6.250;2023-07-22T12:35:54;4.35;;;1.75;;
39772;SDS011;25451;51.960;6.250;2023-07-22T12:38:20;5.97;;;2.25;;
39772;SDS011;25451;51.960;6.250;2023-07-22T12:40:46;4.20;;;1.70;;
39772;SDS011;25451;51.960;6.250;2023-07-22T12:43:11;3.33;;;1.70;;
39772;SDS011;25451;51.960;6.250;2023-07-22T12:45:37;5.30;;;1.93;;
39772;SDS011;25451;51.960;6.250;2023-07-22T12:48:02;4.23;;;1.97;;
39772;SDS011;25451;51.960;6.250;2023-07-22T12:50:30;5.27;;;1.70;;
39772;SDS011;25451;51.960;6.250;2023-07-22T12:52:56;7.10;;;1.60;;
39772;SDS011;25451;51.960;6.250;2023-07-22T12:55:22;3.65;;;1.83;;
39772;SDS011;25451;51.960;6.250;2023-07-22T12:57:48;3.97;;;1.60;;
39772;SDS011;25451;51.960;6.250;2023-07-22T13:00:13;3.70;;;1.63;;
39772;SDS011;25451;51.960;6.250;2023-07-22T13:02:38;6.97;;;1.73;;
39772;SDS011;25451;51.960;6.250;2023-07-22T13:05:04;5.25;;;1.70;;
39772;SDS011;25451;51.960;6.250;2023-07-22T13:07:31;3.45;;;1.60;;
39772;SDS011;25451;51.960;6.250;2023-07-22T13:09:56;3.87;;;1.40;;
39772;SDS011;25451;51.960;6.250;2023-07-22T13:12:24;3.85;;;1.52;;
39772;SDS011;25451;51.960;6.250;2023-07-22T13:14:49;3.90;;;1.40;;
39772;SDS011;25451;51.960;6.250;2023-07-22T13:17:14;3.83;;;1.33;;
39772;SDS011;25451;51.960;6.250;2023-07-22T13:19:40;3.10;;;1.20;;
39772;SDS011;25451;51.960;6.250;2023-07-22T13:22:05;6.20;;;1.60;;
39772;SDS011;25451;51.960;6.250;2023-07-22T13:24:30;3.47;;;1.40;;
39772;SDS011;25451;51.960;6.250;2023-07-22T13:26:56;3.27;;;1.30;;
39772;SDS011;25451;51.960;6.250;2023-07-22T13:29:21;1.87;;;1.10;;
39772;SDS011;25451;51.960;6.250;2023-07-22T13:31:46;3.00;;;1.20;;
39772;SDS011;25451;51.960;6.250;2023-07-22T13:34:12;2.33;;;1.20;;
39772;SDS011;25451;51.960;6.250;2023-07-22T13:36:37;4.67;;;1.30;;
39772;SDS011;25451;51.960;6.250;2023-07-22T13:39:02;4.90;;;1.30;;
39772;SDS011;25451;51.960;6.250;2023-07-22T13:41:28;5.10;;;1.60;;
39772;SDS011;25451;51.960;6.250;2023-07-22T13:43:53;5.25;;;1.63;;
39772;SDS011;25451;51.960;6.250;2023-07-22T13:46:19;3.57;;;1.73;;
39772;SDS011;25451;51.960;6.250;2023-07-22T13:48:45;5.43;;;1.65;;
39772;SDS011;25451;51.960;6.250;2023-07-22T13:51:10;6.50;;;1.70;;
39772;SDS011;25451;51.960;6.250;2023-07-22T13:53:35;4.30;;;1.60;;
39772;SDS011;25451;51.960;6.250;2023-07-22T13:56:01;3.37;;;1.50;;
39772;SDS011;25451;51.960;6.250;2023-07-22T13:58:26;4.03;;;1.60;;
39772;SDS011;25451;51.960;6.250;2023-07-22T14:00:51;4.13;;;1.58;;
39772;SDS011;25451;51.960;6.250;2023-07-22T14:03:17;5.73;;;1.67;;
39772;SDS011;25451;51.960;6.250;2023-07-22T14:05:42;3.20;;;1.40;;
39772;SDS011;25451;51.960;6.250;2023-07-22T14:08:08;5.80;;;1.77;;
39772;SDS011;25451;51.960;6.250;2023-07-22T14:10:33;4.30;;;1.63;;
39772;SDS011;25451;51.960;6.250;2023-07-22T14:12:58;2.83;;;1.60;;
39772;SDS011;25451;51.960;6.250;2023-07-22T14:15:24;4.13;;;1.47;;
39772;SDS011;25451;51.960;6.250;2023-07-22T14:17:49;3.95;;;1.70;;
39772;SDS011;25451;51.960;6.250;2023-07-22T14:20:14;5.20;;;1.70;;
39772;SDS011;25451;51.960;6.250;2023-07-22T14:22:41;4.07;;;1.70;;
39772;SDS011;25451;51.960;6.250;2023-07-22T14:25:07;3.40;;;1.73;;
39772;SDS011;25451;51.960;6.250;2023-07-22T14:27:33;6.07;;;1.80;;
39772;SDS011;25451;51.960;6.250;2023-07-22T14:29:59;4.13;;;1.92;;
39772;SDS011;25451;51.960;6.250;2023-07-22T14:32:25;4.88;;;1.60;;
39772;SDS011;25451;51.960;6.250;2023-07-22T14:34:50;5.37;;;1.70;;
39772;SDS011;25451;51.960;6.250;2023-07-22T14:37:16;3.43;;;1.60;;
39772;SDS011;25451;51.960;6.250;2023-07-22T14:39:42;4.30;;;1.70;;
39772;SDS011;25451;51.960;6.250;2023-07-22T14:42:07;4.70;;;1.60;;
39772;SDS011;25451;51.960;6.250;2023-07-22T14:44:32;3.03;;;1.40;;